createdAt,value
2023-10-21T00:01:45.482Z,98138.09
2023-10-21T00:04:12.474Z,98135.41
2023-10-21T00:06:42.494Z,98135.41
2023-10-21T00:09:09.318Z,98138.09
2023-10-21T00:11:36.060Z,98144.59
2023-10-21T00:14:02.838Z,98152.69
2023-10-21T00:16:29.715Z,98148.44
2023-10-21T00:18:56.884Z,98157.63
2023-10-21T00:21:23.629Z,98175.31
2023-10-21T00:23:53.276Z,98180.34
2023-10-21T00:26:23.403Z,98178.44
2023-10-21T00:28:50.362Z,98193.03
2023-10-21T00:31:17.117Z,98187.63
2023-10-21T00:33:43.872Z,98214.53
2023-10-21T00:36:13.344Z,98206.47
2023-10-21T00:38:40.211Z,98211.41
2023-10-21T00:41:08.945Z,98227.56
2023-10-21T00:43:39.868Z,98222.59
2023-10-21T00:46:23.066Z,98225.97
2023-10-21T00:48:56.055Z,98227.56
2023-10-21T00:51:29.098Z,98225.28
2023-10-21T00:53:59.376Z,98222.19
2023-10-21T00:56:26.144Z,98230.25
2023-10-21T00:58:55.833Z,98242.09
2023-10-21T01:01:28.241Z,98256.69
2023-10-21T01:03:58.287Z,98229.78
2023-10-21T01:06:25.135Z,98240.56
2023-10-21T01:08:51.903Z,98247.06
2023-10-21T01:11:18.653Z,98251.31
2023-10-21T01:13:45.914Z,98246.72
2023-10-21T01:16:16.062Z,98250.53
2023-10-21T01:18:43.260Z,98271.25
2023-10-21T01:21:13.446Z,98263.19
2023-10-21T01:23:40.342Z,98267.44
2023-10-21T01:26:07.736Z,98258.94
2023-10-21T01:28:35.061Z,98251.66
2023-10-21T01:31:05.134Z,98254.34
2023-10-21T01:33:32.050Z,98249.75
2023-10-21T01:35:59.329Z,98237.44
2023-10-21T01:38:26.356Z,98225.09
2023-10-21T01:40:53.956Z,98228.13
2023-10-21T01:43:20.730Z,98228.13
2023-10-21T01:45:47.465Z,98233.50
2023-10-21T01:48:14.822Z,98232.72
2023-10-21T01:50:41.597Z,98234.28
2023-10-21T01:53:08.405Z,98239.66
2023-10-21T01:55:35.358Z,98245.03
2023-10-21T01:58:05.283Z,98254.22
2023-10-21T02:00:32.039Z,98254.22
2023-10-21T02:02:59.268Z,98247.28
2023-10-21T02:05:31.135Z,98231.94
2023-10-21T02:07:57.967Z,98240.78
2023-10-21T02:10:24.732Z,98235.41
2023-10-21T02:12:57.665Z,98232.72
2023-10-21T02:15:24.393Z,98221.97
2023-10-21T02:17:51.352Z,98235.84
2023-10-21T02:20:19.260Z,98224.66
2023-10-21T02:22:46.189Z,98225.78
2023-10-21T02:25:16.676Z,98225.31
2023-10-21T02:27:44.299Z,98227.22
2023-10-21T02:30:13.354Z,98254.56
2023-10-21T02:32:44.535Z,98258.72
2023-10-21T02:35:11.652Z,98271.03
2023-10-21T02:37:41.190Z,98262.97
2023-10-21T02:40:09.175Z,98279.09
2023-10-21T02:42:39.443Z,98275.62
2023-10-21T02:45:07.088Z,98274.88
2023-10-21T02:47:37.222Z,98254.91
2023-10-21T02:50:07.833Z,98251.09
2023-10-21T02:52:37.151Z,98257.16
2023-10-21T02:55:09.705Z,98268.34
2023-10-21T02:57:36.984Z,98280.25
2023-10-21T03:00:05.216Z,98268.34
2023-10-21T03:02:34.736Z,98276.41
2023-10-21T03:05:01.644Z,98287.53
2023-10-21T03:07:28.528Z,98294.81
2023-10-21T03:09:58.379Z,98310.94
2023-10-21T03:12:25.246Z,98321.72
2023-10-21T03:14:52.070Z,98327.88
2023-10-21T03:17:18.998Z,98329.44
2023-10-21T03:19:45.721Z,98336.25
2023-10-21T03:22:12.536Z,98330.88
2023-10-21T03:24:39.307Z,98341.63
2023-10-21T03:27:09.186Z,98362.37
2023-10-21T03:29:39.301Z,98367.75
2023-10-21T03:32:06.290Z,98368.53
2023-10-21T03:34:34.068Z,98378.50
2023-10-21T03:37:04.604Z,98381.53
2023-10-21T03:39:31.323Z,98372.34
2023-10-21T03:42:00.889Z,98377.72
2023-10-21T03:44:31.006Z,98391.50
2023-10-21T03:46:57.781Z,98399.22
2023-10-21T03:49:24.578Z,98400.78
2023-10-21T03:51:51.267Z,98383.09
2023-10-21T03:54:18.041Z,98381.53
2023-10-21T03:56:44.909Z,98386.91
2023-10-21T03:59:11.690Z,98393.06
2023-10-21T04:01:44.605Z,98397.19
2023-10-21T04:04:11.426Z,98401.47
2023-10-21T04:06:38.243Z,98399.13
2023-10-21T04:09:05.038Z,98394.50
2023-10-21T04:11:34.568Z,98394.19
2023-10-21T04:14:04.407Z,98396.88
2023-10-21T04:16:32.261Z,98409.31
2023-10-21T04:18:59.080Z,98417.03
2023-10-21T04:21:25.874Z,98406.41
2023-10-21T04:23:53.013Z,98401.16
2023-10-21T04:26:22.269Z,98405.09
2023-10-21T04:28:48.984Z,98410.59
2023-10-21T04:31:15.717Z,98420.66
2023-10-21T04:33:45.142Z,98428.41
2023-10-21T04:36:11.880Z,98433.13
2023-10-21T04:38:38.759Z,98431.66
2023-10-21T04:41:07.964Z,98424.81
2023-10-21T04:43:34.833Z,98452.63
2023-10-21T04:46:04.636Z,98454.19
2023-10-21T04:48:31.575Z,98451.97
2023-10-21T04:50:58.844Z,98450.16
2023-10-21T04:53:25.607Z,98456.09
2023-10-21T04:55:52.480Z,98457.00
2023-10-21T04:58:22.395Z,98452.41
2023-10-21T05:00:52.161Z,98455.56
2023-10-21T05:03:22.006Z,98447.13
2023-10-21T05:05:49.191Z,98459.44
2023-10-21T05:08:16.111Z,98465.97
2023-10-21T05:10:43.114Z,98455.00
2023-10-21T05:13:09.926Z,98453.97
2023-10-21T05:15:36.828Z,98445.91
2023-10-21T05:18:11.057Z,98462.37
2023-10-21T05:20:38.029Z,98453.53
2023-10-21T05:23:05.066Z,98462.72
2023-10-21T05:25:32.101Z,98480.00
2023-10-21T05:27:59.314Z,98491.09
2023-10-21T05:30:29.300Z,98498.72
2023-10-21T05:33:13.840Z,98505.56
2023-10-21T05:35:40.909Z,98515.53
2023-10-21T05:38:09.286Z,98523.97
2023-10-21T05:40:38.571Z,98518.59
2023-10-21T05:43:05.311Z,98514.75
2023-10-21T05:45:32.058Z,98528.22
2023-10-21T05:47:59.075Z,98533.25
2023-10-21T05:50:26.040Z,98547.97
2023-10-21T05:52:53.395Z,98565.38
2023-10-21T05:55:20.482Z,98562.66
2023-10-21T05:57:50.615Z,98569.28
2023-10-21T06:00:20.975Z,98580.50
2023-10-21T06:02:47.868Z,98589.38
2023-10-21T06:05:15.363Z,98591.28
2023-10-21T06:07:51.104Z,98595.06
2023-10-21T06:10:18.052Z,98610.78
2023-10-21T06:12:45.767Z,98601.13
2023-10-21T06:15:15.058Z,98601.13
2023-10-21T06:17:41.927Z,98608.75
2023-10-21T06:20:12.245Z,98611.00
2023-10-21T06:22:39.159Z,98626.03
2023-10-21T06:25:06.585Z,98636.31
2023-10-21T06:27:36.398Z,98650.91
2023-10-21T06:30:03.292Z,98657.72
2023-10-21T06:32:30.123Z,98658.63
2023-10-21T06:34:56.807Z,98655.62
2023-10-21T06:37:26.243Z,98649.59
2023-10-21T06:39:53.103Z,98640.84
2023-10-21T06:42:20.131Z,98630.19
2023-10-21T06:44:50.171Z,98625.41
2023-10-21T06:47:17.631Z,98637.09
2023-10-21T06:49:47.350Z,98640.69
2023-10-21T06:52:15.105Z,98633.50
2023-10-21T06:54:50.112Z,98634.41
2023-10-21T06:57:17.771Z,98647.88
2023-10-21T06:59:44.543Z,98659.91
2023-10-21T07:02:11.371Z,98679.97
2023-10-21T07:04:39.155Z,98672.38
2023-10-21T07:07:06.194Z,98689.19
2023-10-21T07:09:33.617Z,98697.72
2023-10-21T07:12:01.896Z,98699.31
2023-10-21T07:14:28.820Z,98696.16
2023-10-21T07:16:55.616Z,98699.19
2023-10-21T07:19:22.399Z,98703.78
2023-10-21T07:21:49.581Z,98714.56
2023-10-21T07:24:19.509Z,98694.56
2023-10-21T07:26:46.293Z,98708.69
2023-10-21T07:29:13.042Z,98712.06
2023-10-21T07:31:42.438Z,98714.97
2023-10-21T07:34:09.576Z,98723.25
2023-10-21T07:36:39.191Z,98739.41
2023-10-21T07:39:06.646Z,98731.97
2023-10-21T07:41:37.165Z,98735.31
2023-10-21T07:44:04.973Z,98732.84
2023-10-21T07:46:35.453Z,98738.88
2023-10-21T07:49:06.670Z,98749.50
2023-10-21T07:51:37.492Z,98756.81
2023-10-21T07:54:11.732Z,98760.16
2023-10-21T07:56:44.220Z,98771.59
2023-10-21T07:59:11.204Z,98772.69
2023-10-21T08:01:39.387Z,98774.72
2023-10-21T08:04:10.262Z,98764.63
2023-10-21T08:06:40.160Z,98777.62
2023-10-21T08:09:07.398Z,98781.44
2023-10-21T08:11:41.510Z,98783.00
2023-10-21T08:14:08.833Z,98783.66
2023-10-21T08:16:41.478Z,98776.25
2023-10-21T08:19:11.584Z,98790.47
2023-10-21T08:21:41.780Z,98788.56
2023-10-21T08:24:15.593Z,98789.69
2023-10-21T08:26:46.773Z,98784.19
2023-10-21T08:29:13.789Z,98788.78
2023-10-21T08:31:41.783Z,98808.09
2023-10-21T08:36:35.980Z,98808.53
2023-10-21T08:39:06.663Z,98806.63
2023-10-21T08:41:43.590Z,98808.53
2023-10-21T08:44:13.785Z,98805.84
2023-10-21T08:46:40.879Z,98810.09
2023-10-21T08:51:42.072Z,98814.56
2023-10-21T08:54:09.052Z,98814.56
2023-10-21T08:56:44.299Z,98818.38
2023-10-21T08:59:17.472Z,98824.88
2023-10-21T09:01:45.681Z,98835.66
2023-10-21T09:04:19.593Z,98828.69
2023-10-21T09:06:58.981Z,98847.53
2023-10-21T09:09:27.288Z,98849.56
2023-10-21T09:12:08.268Z,98852.59
2023-10-21T09:14:56.451Z,98857.97
2023-10-21T09:17:37.806Z,98865.69
2023-10-21T09:20:18.616Z,98874.91
2023-10-21T09:22:47.638Z,98876.47
2023-10-21T09:25:23.872Z,98872.19
2023-10-21T09:27:52.316Z,98880.28
2023-10-21T09:30:22.491Z,98885.66
2023-10-21T09:32:49.491Z,98880.28
2023-10-21T09:35:24.661Z,98878.72
2023-10-21T09:37:51.898Z,98880.91
2023-10-21T09:40:19.752Z,98872.06
2023-10-21T09:42:53.644Z,98878.56
2023-10-21T09:45:21.025Z,98876.66
2023-10-21T09:47:48.165Z,98879.34
2023-10-21T09:50:16.832Z,98871.91
2023-10-21T09:53:09.957Z,98866.53
2023-10-21T09:55:37.203Z,98874.16
2023-10-21T09:58:05.506Z,98890.75
2023-10-21T10:00:32.502Z,98887.63
2023-10-21T10:02:59.770Z,98881.13
2023-10-21T10:05:31.602Z,98882.09
2023-10-21T10:07:59.376Z,98894.56
2023-10-21T10:10:26.951Z,98868.59
2023-10-21T10:13:12.419Z,98870.50
2023-10-21T10:15:45.841Z,98867.03
2023-10-21T10:18:20.639Z,98872.41
2023-10-21T10:20:49.656Z,98877.78
2023-10-21T10:23:16.651Z,98879.34
2023-10-21T10:25:48.471Z,98886.31
2023-10-21T10:28:28.828Z,98873.97
2023-10-21T10:30:57.127Z,98877.12
2023-10-21T10:33:36.514Z,98868.38
2023-10-21T10:36:03.818Z,98875.81
2023-10-21T10:38:43.194Z,98861.59
2023-10-21T10:41:14.848Z,98877.38
2023-10-21T10:44:03.961Z,98870.44
2023-10-21T10:46:36.461Z,98877.28
2023-10-21T10:49:09.808Z,98873.59
2023-10-21T10:51:45.713Z,98889.75
2023-10-21T10:54:16.880Z,98895.13
2023-10-21T10:56:45.303Z,98904.31
2023-10-21T10:59:16.213Z,98903.37
2023-10-21T11:01:43.005Z,98901.81
2023-10-21T11:04:09.903Z,98903.37
2023-10-21T11:06:38.854Z,98902.59
2023-10-21T11:09:06.480Z,98905.63
2023-10-21T11:12:06.703Z,98906.06
2023-10-21T11:14:39.681Z,98907.84
2023-10-21T11:17:06.507Z,98907.97
2023-10-21T11:22:04.047Z,98907.34
2023-10-21T11:24:36.105Z,98913.50
2023-10-21T11:27:03.516Z,98921.56
2023-10-21T11:29:30.491Z,98928.22
2023-10-21T11:31:58.417Z,98933.59
2023-10-21T11:34:25.586Z,98942.94
2023-10-21T11:36:52.605Z,98949.41
2023-10-21T11:39:22.988Z,98959.88
2023-10-21T11:41:54.114Z,98960.66
2023-10-21T11:44:31.010Z,98960.66
2023-10-21T11:47:02.082Z,98966.03
2023-10-21T11:49:28.953Z,98956.84
2023-10-21T11:51:55.921Z,98960.03
2023-10-21T11:54:23.583Z,98956.84
2023-10-21T11:56:50.518Z,98958.41
2023-10-21T11:59:21.024Z,98961.12
2023-10-21T12:01:51.071Z,98965.72
2023-10-21T12:04:18.040Z,98955.44
2023-10-21T12:06:44.874Z,98958.41
2023-10-21T12:09:11.790Z,98965.72
2023-10-21T12:11:38.710Z,98964.59
2023-10-21T12:14:05.524Z,98963.81
2023-10-21T12:16:42.334Z,98954.16
2023-10-21T12:19:09.200Z,98951.03
2023-10-21T12:21:36.047Z,98953.72
2023-10-21T12:24:05.595Z,98951.03
2023-10-21T12:26:32.426Z,98953.72
2023-10-21T12:28:59.348Z,98949.13
2023-10-21T12:31:26.435Z,98949.41
2023-10-21T12:33:53.301Z,98954.50
2023-10-21T12:36:20.397Z,98957.97
2023-10-21T12:38:50.469Z,98955.28
2023-10-21T12:41:17.506Z,98964.94
2023-10-21T12:43:44.876Z,98965.41
2023-10-21T12:46:11.679Z,98969.19
2023-10-21T12:48:38.488Z,98966.50
2023-10-21T12:51:05.442Z,98958.41
2023-10-21T12:53:33.187Z,98965.41
2023-10-21T12:55:59.947Z,98958.41
2023-10-21T12:58:26.805Z,98961.91
2023-10-21T13:00:53.904Z,98954.16
2023-10-21T13:03:20.936Z,98952.25
2023-10-21T13:05:47.860Z,98950.34
2023-10-21T13:08:14.986Z,98939.56
2023-10-21T13:10:44.388Z,98935.31
2023-10-21T13:13:11.480Z,98936.09
2023-10-21T13:15:38.453Z,98929.94
2023-10-21T13:18:05.712Z,98932.97
2023-10-21T13:20:32.716Z,98937.22
2023-10-21T13:22:59.833Z,98932.19
2023-10-21T13:25:31.216Z,98926.78
2023-10-21T13:28:02.800Z,98919.03
2023-10-21T13:30:29.857Z,98920.94
2023-10-21T13:32:56.997Z,98913.50
2023-10-21T13:35:27.669Z,98913.50
2023-10-21T13:37:55.256Z,98903.22
2023-10-21T13:40:25.401Z,98905.91
2023-10-21T13:42:53.104Z,98907.00
2023-10-21T13:45:22.498Z,98900.53
2023-10-21T13:48:04.596Z,98892.91
2023-10-21T13:50:31.780Z,98896.72
2023-10-21T13:52:59.488Z,98897.19
2023-10-21T13:55:26.348Z,98902.22
2023-10-21T13:57:53.098Z,98896.50
2023-10-21T14:00:24.631Z,98888.91
2023-10-21T14:02:51.604Z,98901.59
2023-10-21T14:05:18.658Z,98906.62
2023-10-21T14:07:45.478Z,98913.13
2023-10-21T14:10:12.495Z,98912.34
2023-10-21T14:12:39.233Z,98914.91
2023-10-21T14:15:06.782Z,98918.72
2023-10-21T14:17:36.737Z,98919.16
2023-10-21T14:20:04.024Z,98932.19
2023-10-21T14:22:32.541Z,98933.28
2023-10-21T14:24:59.726Z,98947.22
2023-10-21T14:27:26.586Z,98952.09
2023-10-21T14:30:04.873Z,98935.19
2023-10-21T14:32:31.663Z,98930.12
2023-10-21T14:34:59.295Z,98939.00
2023-10-21T14:37:26.025Z,98943.59
2023-10-21T14:39:53.181Z,98938.19
2023-10-21T14:42:20.246Z,98929.00
2023-10-21T14:44:47.137Z,98945.16
2023-10-21T14:47:14.331Z,98943.25
2023-10-21T14:49:44.636Z,98930.56
2023-10-21T14:52:11.359Z,98935.97
2023-10-21T14:54:38.589Z,98949.41
2023-10-21T14:57:05.541Z,98947.38
2023-10-21T14:59:32.298Z,98959.72
2023-10-21T15:01:59.249Z,98955.91
2023-10-21T15:04:26.225Z,98966.22
2023-10-21T15:06:53.403Z,98965.91
2023-10-21T15:09:20.252Z,98971.28
2023-10-21T15:11:47.068Z,98969.03
2023-10-21T15:14:15.759Z,98969.84
2023-10-21T15:16:42.575Z,98970.31
2023-10-21T15:19:12.647Z,98963.81
2023-10-21T15:21:39.545Z,98957.78
2023-10-21T15:24:06.835Z,98963.66
2023-10-21T15:26:33.757Z,98956.50
2023-10-21T15:29:00.587Z,98967.41
2023-10-21T15:31:27.412Z,98976.72
2023-10-21T15:33:54.214Z,98985.28
2023-10-21T15:36:24.586Z,98972.25
2023-10-21T15:38:51.731Z,98980.47
2023-10-21T15:41:18.995Z,98973.19
2023-10-21T15:43:46.384Z,98973.97
2023-10-21T15:46:13.691Z,98983.34
2023-10-21T15:48:41.015Z,98977.19
2023-10-21T15:51:12.687Z,98976.84
2023-10-21T15:53:39.634Z,98977.19
2023-10-21T15:56:06.782Z,98983.34
2023-10-21T15:58:33.705Z,98981.78
2023-10-21T16:01:00.579Z,98983.34
2023-10-21T16:03:27.418Z,98981.00
2023-10-21T16:05:54.388Z,98973.19
2023-10-21T16:08:23.298Z,98977.34
2023-10-21T16:11:00.747Z,98971.16
2023-10-21T16:13:30.622Z,98968.47
2023-10-21T16:16:03.656Z,98977.00
2023-10-21T16:18:30.808Z,98976.22
2023-10-21T16:20:57.565Z,98974.78
2023-10-21T16:23:24.378Z,98965.91
2023-10-21T16:25:51.135Z,98972.09
2023-10-21T16:28:21.106Z,98979.53
2023-10-21T16:30:50.775Z,98990.31
2023-10-21T16:33:21.071Z,98998.84
2023-10-21T16:35:48.051Z,99012.31
2023-10-21T16:38:14.906Z,99020.06
2023-10-21T16:40:41.776Z,99021.97
2023-10-21T16:43:08.577Z,99025.78
2023-10-21T16:45:36.284Z,99031.97
2023-10-21T16:48:04.100Z,99030.38
2023-10-21T16:50:37.846Z,99036.56
2023-10-21T16:53:04.692Z,99041.47
2023-10-21T16:55:31.464Z,99047.97
2023-10-21T16:57:58.413Z,99042.59
2023-10-21T17:00:25.286Z,99053.69
2023-10-21T17:02:52.177Z,99049.38
2023-10-21T17:05:19.276Z,99047.50
2023-10-21T17:07:46.056Z,99058.25
2023-10-21T17:10:12.928Z,99063.97
2023-10-21T17:12:40.301Z,99066.50
2023-10-21T17:15:07.761Z,99072.34
2023-10-21T17:17:35.167Z,99081.22
2023-10-21T17:20:02.502Z,99082.78
2023-10-21T17:22:29.255Z,99082.78
2023-10-21T17:24:56.114Z,99082.78
2023-10-21T17:27:25.438Z,99087.72
2023-10-21T17:29:53.349Z,99077.25
2023-10-21T17:32:20.149Z,99083.47
2023-10-21T17:34:46.926Z,99090.28
2023-10-21T17:37:13.690Z,99098.66
2023-10-21T17:39:40.950Z,99095.97
2023-10-21T17:42:07.731Z,99090.09
2023-10-21T17:44:34.527Z,99085.50
2023-10-21T17:47:01.480Z,99078.22
2023-10-21T17:49:28.409Z,99071.72
2023-10-21T17:51:55.134Z,99073.94
2023-10-21T17:54:21.880Z,99075.50
2023-10-21T17:56:48.695Z,99071.72
2023-10-21T17:59:15.447Z,99067.94
2023-10-21T18:01:44.178Z,99065.72
2023-10-21T18:04:15.216Z,99062.72
2023-10-21T18:06:45.127Z,99065.84
2023-10-21T18:09:15.460Z,99062.84
2023-10-21T18:11:42.286Z,99064.44
2023-10-21T18:14:09.020Z,99053.78
2023-10-21T18:16:35.903Z,99057.72
2023-10-21T18:19:02.799Z,99046.63
2023-10-21T18:21:29.612Z,99050.13
2023-10-21T18:23:56.719Z,99058.19
2023-10-21T18:26:26.568Z,99053.94
2023-10-21T18:28:56.522Z,99054.72
2023-10-21T18:31:26.324Z,99061.53
2023-10-21T18:33:54.199Z,99059.31
2023-10-21T18:36:21.174Z,99060.41
2023-10-21T18:38:47.960Z,99065.81
2023-10-21T18:41:14.668Z,99062.66
2023-10-21T18:43:41.480Z,99062.19
2023-10-21T18:46:09.242Z,99061.72
2023-10-21T18:48:36.055Z,99066.62
2023-10-21T18:51:02.968Z,99058.91
2023-10-21T18:53:30.430Z,99064.63
2023-10-21T18:55:57.196Z,99064.13
2023-10-21T18:58:26.819Z,99065.25
2023-10-21T19:00:58.368Z,99066.34
2023-10-21T19:03:25.316Z,99067.78
2023-10-21T19:05:55.044Z,99078.53
2023-10-21T19:08:22.443Z,99080.75
2023-10-21T19:10:49.308Z,99079.19
2023-10-21T19:13:16.130Z,99077.28
2023-10-21T19:15:46.337Z,99076.03
2023-10-21T19:18:13.444Z,99069.84
2023-10-21T19:20:40.292Z,99069.84
2023-10-21T19:23:08.412Z,99057.50
2023-10-21T19:25:35.205Z,99062.09
2023-10-21T19:28:10.740Z,99062.72
2023-10-21T19:30:38.121Z,99070.50
2023-10-21T19:33:04.927Z,99062.87
2023-10-21T19:35:38.544Z,99070.66
2023-10-21T19:38:05.764Z,99068.25
2023-10-21T19:40:34.017Z,99066.69
2023-10-21T19:43:00.920Z,99071.28
2023-10-21T19:45:27.728Z,99063.50
2023-10-21T19:47:55.083Z,99064.44
2023-10-21T19:50:21.971Z,99055.28
2023-10-21T19:52:49.845Z,99056.72
2023-10-21T19:55:16.709Z,99058.13
2023-10-21T19:57:44.089Z,99051.19
2023-10-21T20:00:11.940Z,99040.09
2023-10-21T20:02:38.978Z,99028.50
2023-10-21T20:05:06.694Z,99029.34
2023-10-21T20:07:39.556Z,99020.44
2023-10-21T20:10:10.469Z,99023.94
2023-10-21T20:12:38.009Z,99015.06
2023-10-21T20:15:05.182Z,99010.78
2023-10-21T20:17:33.581Z,99006.53
2023-10-21T20:20:02.832Z,99009.66
2023-10-21T20:22:31.674Z,99023.59
2023-10-21T20:25:13.135Z,99015.97
2023-10-21T20:27:40.745Z,99004.56
2023-10-21T20:30:13.492Z,99007.09
2023-10-21T20:32:47.250Z,99008.06
2023-10-21T20:35:33.854Z,99009.00
2023-10-21T20:38:02.144Z,99009.91
2023-10-21T20:40:40.172Z,99008.94
2023-10-21T20:43:07.310Z,99009.06
2023-10-21T20:45:36.760Z,99011.91
2023-10-21T20:48:07.053Z,99009.34
2023-10-21T20:50:40.823Z,99012.50
2023-10-21T20:53:11.110Z,99009.94
2023-10-21T20:55:39.054Z,99014.34
2023-10-21T20:58:09.245Z,99011.34
2023-10-21T21:00:37.507Z,99007.53
2023-10-21T21:03:08.621Z,99012.56
2023-10-21T21:05:38.831Z,99015.25
2023-10-21T21:08:06.109Z,99024.00
2023-10-21T21:10:33.920Z,99024.00
2023-10-21T21:13:01.946Z,99035.44
2023-10-21T21:15:29.326Z,99020.72
2023-10-21T21:17:56.179Z,99021.69
2023-10-21T21:20:23.212Z,99019.31
2023-10-21T21:22:50.025Z,99011.13
2023-10-21T21:25:16.915Z,99014.12
2023-10-21T21:27:44.225Z,99012.84
2023-10-21T21:30:14.723Z,99011.28
2023-10-21T21:32:41.663Z,99011.50
2023-10-21T21:35:19.534Z,99007.22
2023-10-21T21:37:46.362Z,99005.16
2023-10-21T21:40:16.585Z,99007.38
2023-10-21T21:42:45.974Z,99010.75
2023-10-21T21:45:13.778Z,99014.09
2023-10-21T21:47:40.654Z,99011.66
2023-10-21T21:50:07.978Z,99013.13
2023-10-21T21:52:41.166Z,99010.28
2023-10-21T21:55:08.442Z,99009.50
2023-10-21T21:57:38.749Z,99009.03
2023-10-21T22:00:09.274Z,99005.88
2023-10-21T22:02:36.933Z,99008.88
2023-10-21T22:05:03.890Z,99015.38
2023-10-21T22:07:32.734Z,99008.75
2023-10-21T22:10:03.051Z,99013.19
2023-10-21T22:12:35.710Z,99014.78
2023-10-21T22:15:06.547Z,99015.88
2023-10-21T22:17:33.455Z,99017.34
2023-10-21T22:20:00.253Z,99026.19
2023-10-21T22:22:27.098Z,99023.81
2023-10-21T22:24:57.176Z,99024.16
2023-10-21T22:27:24.017Z,99024.47
2023-10-21T22:29:54.028Z,99019.88
2023-10-21T22:32:23.605Z,99025.91
2023-10-21T22:34:57.165Z,99029.06
2023-10-21T22:37:24.435Z,99029.72
2023-10-21T22:39:54.011Z,99038.88
2023-10-21T22:42:20.882Z,99041.91
2023-10-21T22:44:48.185Z,99038.75
2023-10-21T22:47:15.095Z,99031.00
2023-10-21T22:49:44.994Z,99034.16
2023-10-21T22:52:11.770Z,99037.50
2023-10-21T22:54:39.060Z,99043.22
2023-10-21T22:57:06.400Z,99033.22
2023-10-21T22:59:33.277Z,99032.44
2023-10-21T23:01:59.979Z,99033.53
2023-10-21T23:04:26.759Z,99028.94
2023-10-21T23:06:53.469Z,99031.63
2023-10-21T23:09:23.341Z,99036.22
2023-10-21T23:11:50.191Z,99034.66
2023-10-21T23:14:17.047Z,99040.81
2023-10-21T23:16:43.761Z,99031.16
2023-10-21T23:19:10.863Z,99027.22
2023-10-21T23:21:37.664Z,99022.16
2023-10-21T23:24:04.664Z,99023.72
2023-10-21T23:26:31.441Z,99024.53
2023-10-21T23:29:00.871Z,99024.84
2023-10-21T23:31:28.115Z,99029.75
2023-10-21T23:33:54.889Z,99032.94
2023-10-21T23:36:21.696Z,99030.53
2023-10-21T23:38:48.639Z,99029.75
2023-10-21T23:41:15.422Z,99029.75
2023-10-21T23:43:42.293Z,99032.00
2023-10-21T23:46:09.790Z,99032.78
2023-10-21T23:48:36.914Z,99041.97
2023-10-21T23:51:03.845Z,99034.19
2023-10-21T23:53:31.615Z,99030.41
2023-10-21T23:55:58.710Z,99025.66
2023-10-21T23:58:28.400Z,99022.97
